Time;durP1;ratioP1;P1;durP2;ratioP2;P2;SDS_P1;SDS_P2;PMS_P1;PMS_P2;Temp;Humidity;BMP_temperature;BMP_pressure;BME280_temperature;BME280_humidity;BME280_pressure;Samples;Min_cycle;Max_cycle;Signal;HPM_P1;HPM_P2
2022/09/25 00:01:23;;;;;;;;;;;15.20;90.90;;;;;;5024621;28;19944;-74
2022/09/25 00:03:50;;;;;;;;;;;15.20;91.00;;;;;;5026737;28;19933;-75
2022/09/25 00:06:18;;;;;;;;;;;15.20;91.00;;;;;;5025687;28;19932;-75
2022/09/25 00:08:45;;;;;;;;;;;15.20;91.00;;;;;;5026341;28;19929;-75
2022/09/25 00:11:13;;;;;;;;;;;15.20;91.00;;;;;;5023568;28;19933;-76
2022/09/25 00:13:40;;;;;;;;;;;15.20;91.00;;;;;;5026533;28;19929;-75
2022/09/25 00:16:09;;;;;;;;;;;15.10;91.00;;;;;;5023233;28;19936;-75
2022/09/25 00:21:21;;;;;;;;;;;15.20;91.10;;;;;;5026538;28;19975;-75
2022/09/25 00:23:47;;;;;;;;;;;15.10;91.10;;;;;;5022365;28;19937;-75
2022/09/25 00:26:15;;;;;;;;;;;15.10;91.10;;;;;;5024074;28;20429;-75
2022/09/25 00:28:42;;;;;;;;;;;15.10;91.10;;;;;;5025620;28;19933;-75
2022/09/25 00:31:09;;;;;;;;;;;15.10;91.10;;;;;;5025250;28;19932;-75
2022/09/25 00:33:36;;;;;;;;;;;15.10;91.10;;;;;;5025743;28;20277;-75
2022/09/25 00:36:05;;;;;;;;;;;15.10;91.20;;;;;;5027209;28;19983;-76
2022/09/25 00:38:33;;;;;;;;;;;15.10;91.20;;;;;;5025417;28;20052;-75
2022/09/25 00:40:59;;;;;;;;;;;15.10;91.20;;;;;;5023929;28;19929;-75
2022/09/25 00:43:36;;;;;;;;;;;15.10;91.20;;;;;;5025559;28;19983;-73
2022/09/25 00:46:05;;;;;;;;;;;15.10;91.20;;;;;;5024689;28;19944;-75
2022/09/25 00:48:31;;;;;;;;;;;15.00;91.60;;;;;;5023366;28;19940;-75
2022/09/25 00:50:58;;;;;;;;;;;15.10;91.30;;;;;;5024724;28;19933;-75
2022/09/25 00:53:27;;;;;;;;;;;15.00;91.20;;;;;;5026929;28;19939;-74
2022/09/25 00:55:55;;;;;;;;;;;15.00;91.30;;;;;;5015429;28;19929;-75
2022/09/25 00:58:23;;;;;;;;;;;15.00;91.30;;;;;;5020125;28;19933;-74
2022/09/25 01:00:50;;;;;;;;;;;15.00;91.30;;;;;;5024744;28;19929;-75
2022/09/25 01:03:17;;;;;;;;;;;15.00;91.30;;;;;;5025961;28;19936;-76
2022/09/25 01:05:45;;;;;;;;;;;15.00;91.30;;;;;;5022155;28;19936;-75
2022/09/25 01:08:13;;;;;;;;;;;15.00;91.40;;;;;;5020034;28;19929;-75
2022/09/25 01:10:40;;;;;;;;;;;15.00;91.40;;;;;;5022400;28;19929;-75
2022/09/25 01:13:09;;;;;;;;;;;15.00;91.40;;;;;;5024145;28;19937;-76
2022/09/25 01:15:38;;;;;;;;;;;15.00;91.40;;;;;;5020829;28;19936;-75
2022/09/25 01:18:09;;;;;;;;;;;14.90;91.40;;;;;;5032468;28;20474;-75
2022/09/25 01:20:42;;;;;;;;;;;15.00;91.40;;;;;;5026648;28;19936;-76
2022/09/25 01:23:15;;;;;;;;;;;15.00;91.80;;;;;;5030329;28;19929;-75
2022/09/25 01:25:49;;;;;;;;;;;14.90;91.40;;;;;;5024711;28;19933;-75
2022/09/25 01:28:29;;;;;;;;;;;14.90;91.40;;;;;;5026252;28;19929;-75
2022/09/25 01:30:59;;;;;;;;;;;14.90;91.50;;;;;;5014423;28;20036;-75
2022/09/25 01:33:31;;;;;;;;;;;14.90;91.50;;;;;;5023881;28;20412;-73
2022/09/25 01:36:00;;;;;;;;;;;14.90;91.50;;;;;;5030316;28;19941;-75
2022/09/25 01:38:31;;;;;;;;;;;14.90;91.50;;;;;;5024524;28;19929;-75
2022/09/25 01:41:00;;;;;;;;;;;14.90;91.50;;;;;;5021096;28;19991;-76
2022/09/25 01:43:31;;;;;;;;;;;14.80;91.80;;;;;;5020625;28;19936;-74
2022/09/25 01:46:00;;;;;;;;;;;14.90;91.50;;;;;;5025763;28;19929;-75
2022/09/25 01:48:28;;;;;;;;;;;14.90;91.60;;;;;;5025480;28;19929;-75
2022/09/25 01:50:57;;;;;;;;;;;14.80;91.60;;;;;;5027209;28;19925;-75
2022/09/25 01:53:25;;;;;;;;;;;14.90;91.60;;;;;;5022393;28;19943;-75
2022/09/25 01:55:54;;;;;;;;;;;14.80;91.60;;;;;;5012760;28;19929;-75
2022/09/25 01:58:24;;;;;;;;;;;14.80;91.60;;;;;;5016134;28;19926;-76
2022/09/25 02:00:54;;;;;;;;;;;14.80;91.60;;;;;;5023002;28;19925;-75
2022/09/25 02:03:24;;;;;;;;;;;14.80;91.60;;;;;;5025286;28;19929;-75
2022/09/25 02:05:53;;;;;;;;;;;14.80;91.60;;;;;;5021824;28;19937;-75
2022/09/25 02:08:22;;;;;;;;;;;14.80;91.60;;;;;;5024173;28;19929;-75
2022/09/25 02:10:52;;;;;;;;;;;14.80;91.60;;;;;;5021842;28;20317;-76
2022/09/25 02:13:19;;;;;;;;;;;14.80;91.60;;;;;;5023807;28;20022;-76
2022/09/25 02:15:49;;;;;;;;;;;14.80;92.00;;;;;;5015777;28;20021;-76
2022/09/25 02:21:09;;;;;;;;;;;14.80;91.70;;;;;;5028684;28;19940;-75
2022/09/25 02:23:41;;;;;;;;;;;14.80;91.70;;;;;;5025255;28;19928;-75
2022/09/25 02:26:12;;;;;;;;;;;14.80;91.70;;;;;;5021208;28;20516;-75
2022/09/25 02:28:39;;;;;;;;;;;14.80;91.70;;;;;;5025643;28;19936;-75
2022/09/25 02:31:07;;;;;;;;;;;14.80;91.70;;;;;;5024842;28;20002;-75
2022/09/25 02:33:34;;;;;;;;;;;14.80;91.70;;;;;;5022553;28;19929;-76
2022/09/25 02:36:03;;;;;;;;;;;14.80;91.70;;;;;;5028551;28;19940;-75
2022/09/25 02:38:32;;;;;;;;;;;14.80;91.70;;;;;;5024616;28;19953;-75
2022/09/25 02:41:02;;;;;;;;;;;14.70;91.70;;;;;;5019308;28;19929;-75
2022/09/25 02:43:37;;;;;;;;;;;14.80;92.10;;;;;;5017032;28;19929;-75
2022/09/25 02:46:08;;;;;;;;;;;14.70;91.70;;;;;;5024219;28;19948;-75
2022/09/25 02:48:40;;;;;;;;;;;14.70;91.70;;;;;;5024743;28;20671;-75
2022/09/25 02:51:10;;;;;;;;;;;14.70;91.70;;;;;;5016772;28;20475;-75
2022/09/25 02:53:38;;;;;;;;;;;14.80;91.80;;;;;;5023451;28;19984;-75
2022/09/25 02:56:08;;;;;;;;;;;14.70;91.80;;;;;;5019341;28;19930;-76
2022/09/25 02:58:36;;;;;;;;;;;14.70;91.80;;;;;;5021240;28;20621;-75
2022/09/25 03:01:04;;;;;;;;;;;14.70;91.80;;;;;;5023791;28;20396;-75
2022/09/25 03:03:31;;;;;;;;;;;14.70;91.80;;;;;;5024146;28;19940;-75
2022/09/25 03:05:59;;;;;;;;;;;14.70;91.80;;;;;;5020294;28;19929;-76
2022/09/25 03:08:40;;;;;;;;;;;14.70;91.80;;;;;;5024034;28;19933;-75
2022/09/25 03:11:07;;;;;;;;;;;14.70;91.80;;;;;;5022715;28;19929;-76
2022/09/25 03:13:34;;;;;;;;;;;14.70;91.80;;;;;;5018726;28;20312;-75
2022/09/25 03:16:02;;;;;;;;;;;14.70;91.80;;;;;;5026412;28;19936;-75
2022/09/25 03:18:30;;;;;;;;;;;14.70;91.80;;;;;;5022487;28;20316;-75
2022/09/25 03:20:56;;;;;;;;;;;14.70;91.90;;;;;;5022003;28;20011;-75
2022/09/25 03:23:23;;;;;;;;;;;14.70;91.90;;;;;;5028522;28;20027;-75
2022/09/25 03:25:52;;;;;;;;;;;14.70;91.90;;;;;;5020927;28;20012;-76
2022/09/25 03:28:19;;;;;;;;;;;14.70;91.90;;;;;;5027574;28;20320;-76
2022/09/25 03:30:55;;;;;;;;;;;14.60;91.90;;;;;;5027171;28;19935;-75
2022/09/25 03:33:21;;;;;;;;;;;14.60;91.90;;;;;;5024696;28;19925;-75
2022/09/25 03:35:48;;;;;;;;;;;14.60;91.90;;;;;;5035119;28;20345;-76
2022/09/25 03:38:14;;;;;;;;;;;14.60;91.90;;;;;;5015962;28;19929;-75
2022/09/25 03:40:42;;;;;;;;;;;14.60;91.90;;;;;;5016439;28;19929;-76
2022/09/25 03:43:10;;;;;;;;;;;14.60;91.90;;;;;;5017598;28;19952;-75
2022/09/25 03:45:37;;;;;;;;;;;14.60;91.90;;;;;;5021540;28;19937;-75
2022/09/25 03:48:03;;;;;;;;;;;14.60;91.90;;;;;;5024200;28;19929;-75
2022/09/25 03:50:30;;;;;;;;;;;14.60;91.90;;;;;;5022522;28;19996;-75
2022/09/25 03:52:56;;;;;;;;;;;14.60;91.90;;;;;;5023835;28;19929;-76
2022/09/25 03:55:24;;;;;;;;;;;14.60;91.90;;;;;;5019078;28;19929;-75
2022/09/25 03:57:51;;;;;;;;;;;14.60;91.90;;;;;;5017028;28;20024;-75
2022/09/25 04:00:19;;;;;;;;;;;14.60;92.00;;;;;;5023094;28;20408;-75
2022/09/25 04:02:45;;;;;;;;;;;14.60;92.00;;;;;;5024408;28;20020;-75
2022/09/25 04:05:12;;;;;;;;;;;14.60;92.00;;;;;;5023580;28;19933;-75
2022/09/25 04:07:38;;;;;;;;;;;14.60;92.00;;;;;;5030626;28;19928;-75
2022/09/25 04:10:05;;;;;;;;;;;14.60;92.00;;;;;;5023510;28;20003;-75
2022/09/25 04:12:32;;;;;;;;;;;14.60;92.10;;;;;;5013670;28;20381;-75
2022/09/25 04:14:59;;;;;;;;;;;14.60;92.10;;;;;;5023975;28;19972;-75
2022/09/25 04:17:28;;;;;;;;;;;14.60;92.10;;;;;;5024299;28;19939;-75
2022/09/25 04:19:54;;;;;;;;;;;14.60;92.20;;;;;;5015129;28;19929;-75
2022/09/25 04:22:21;;;;;;;;;;;14.60;92.10;;;;;;5026461;28;19929;-75
2022/09/25 04:24:50;;;;;;;;;;;14.60;92.10;;;;;;5029443;28;19929;-75
2022/09/25 04:27:19;;;;;;;;;;;14.60;92.10;;;;;;5027200;28;19925;-75
2022/09/25 04:29:46;;;;;;;;;;;14.50;92.10;;;;;;5026222;28;21740;-76
2022/09/25 04:34:58;;;;;;;;;;;14.60;92.20;;;;;;5028431;28;20061;-75
2022/09/25 04:37:26;;;;;;;;;;;14.50;92.10;;;;;;5022506;28;19933;-74
2022/09/25 04:39:52;;;;;;;;;;;14.50;92.20;;;;;;5024808;28;20016;-75
2022/09/25 04:42:23;;;;;;;;;;;14.50;92.20;;;;;;5021593;28;19945;-75
2022/09/25 04:44:50;;;;;;;;;;;14.50;92.20;;;;;;5028517;28;20327;-75
2022/09/25 04:47:16;;;;;;;;;;;14.60;92.20;;;;;;5023337;28;19936;-75
2022/09/25 04:49:43;;;;;;;;;;;14.50;92.20;;;;;;5025146;28;19936;-75
2022/09/25 04:52:14;;;;;;;;;;;14.50;92.20;;;;;;5033539;28;19929;-75
2022/09/25 04:54:40;;;;;;;;;;;14.50;92.20;;;;;;5028054;28;20311;-75
2022/09/25 04:57:07;;;;;;;;;;;14.50;92.20;;;;;;5023689;28;19929;-73
2022/09/25 04:59:34;;;;;;;;;;;14.50;92.20;;;;;;5025191;28;19929;-75
2022/09/25 05:02:00;;;;;;;;;;;14.50;92.20;;;;;;5018729;28;19933;-75
2022/09/25 05:04:27;;;;;;;;;;;14.50;92.20;;;;;;5023251;28;19933;-75
2022/09/25 05:06:54;;;;;;;;;;;14.50;92.30;;;;;;5023418;28;19936;-75
2022/09/25 05:09:21;;;;;;;;;;;14.50;92.30;;;;;;5024400;28;19936;-75
2022/09/25 05:11:48;;;;;;;;;;;14.50;92.30;;;;;;5024290;28;19935;-75
2022/09/25 05:14:15;;;;;;;;;;;14.50;92.30;;;;;;5025337;28;19933;-75
2022/09/25 05:16:42;;;;;;;;;;;14.40;92.30;;;;;;5023473;28;19929;-75
2022/09/25 05:19:08;;;;;;;;;;;14.50;92.30;;;;;;5025205;28;20002;-75
2022/09/25 05:21:35;;;;;;;;;;;14.50;92.30;;;;;;5023195;28;19933;-75
2022/09/25 05:24:02;;;;;;;;;;;14.40;92.20;;;;;;5029602;28;19933;-74
2022/09/25 05:26:29;;;;;;;;;;;14.50;92.30;;;;;;5021373;28;19964;-75
2022/09/25 05:28:56;;;;;;;;;;;14.40;92.70;;;;;;5027968;28;19940;-76
2022/09/25 05:31:23;;;;;;;;;;;14.40;93.50;;;;;;5027576;28;19932;-76
2022/09/25 05:33:50;;;;;;;;;;;14.40;93.50;;;;;;5028448;28;19924;-76
2022/09/25 05:36:17;;;;;;;;;;;14.30;93.40;;;;;;5027313;28;19937;-76
2022/09/25 05:38:44;;;;;;;;;;;14.30;93.40;;;;;;5026371;28;20304;-76
2022/09/25 05:41:10;;;;;;;;;;;14.30;93.40;;;;;;5021708;28;19940;-76
2022/09/25 05:43:40;;;;;;;;;;;14.40;93.30;;;;;;5030157;28;19929;-77
2022/09/25 05:46:06;;;;;;;;;;;14.30;93.20;;;;;;5022905;28;20490;-77
2022/09/25 05:48:33;;;;;;;;;;;14.40;93.20;;;;;;5026433;28;19933;-76
2022/09/25 05:50:59;;;;;;;;;;;14.30;93.10;;;;;;5021644;28;19933;-77
2022/09/25 05:53:26;;;;;;;;;;;14.40;93.10;;;;;;5021185;28;19932;-74
2022/09/25 05:55:54;;;;;;;;;;;14.30;93.10;;;;;;5029111;28;20385;-76
2022/09/25 05:58:20;;;;;;;;;;;14.40;93.10;;;;;;5037674;28;20502;-76
2022/09/25 06:00:49;;;;;;;;;;;14.40;93.00;;;;;;5028067;28;19925;-76
2022/09/25 06:03:15;;;;;;;;;;;14.40;93.00;;;;;;5031187;28;19929;-76
2022/09/25 06:05:44;;;;;;;;;;;14.30;92.90;;;;;;5023740;28;19937;-76
2022/09/25 06:08:11;;;;;;;;;;;14.30;92.90;;;;;;5031156;28;19941;-76
2022/09/25 06:10:38;;;;;;;;;;;14.40;92.90;;;;;;5029540;28;19936;-77
2022/09/25 06:13:05;;;;;;;;;;;14.30;92.80;;;;;;5021342;28;19928;-77
2022/09/25 06:15:36;;;;;;;;;;;14.40;92.80;;;;;;5025105;28;19929;-77
2022/09/25 06:18:04;;;;;;;;;;;14.40;92.90;;;;;;5026713;28;19971;-77
2022/09/25 06:20:31;;;;;;;;;;;14.30;92.80;;;;;;5022425;28;19929;-76
2022/09/25 06:22:58;;;;;;;;;;;14.40;92.80;;;;;;5025552;28;20023;-76
2022/09/25 06:25:26;;;;;;;;;;;14.30;92.80;;;;;;5026264;28;20550;-76
2022/09/25 06:27:53;;;;;;;;;;;14.40;92.90;;;;;;5022502;28;19944;-76
2022/09/25 06:30:20;;;;;;;;;;;14.30;92.80;;;;;;5025396;28;19999;-77
2022/09/25 06:32:47;;;;;;;;;;;14.30;92.80;;;;;;5028809;28;19983;-77
2022/09/25 06:35:15;;;;;;;;;;;14.20;92.80;;;;;;5030773;28;20035;-77
2022/09/25 06:37:42;;;;;;;;;;;14.30;92.90;;;;;;5029728;28;20470;-76
2022/09/25 06:40:09;;;;;;;;;;;14.30;92.90;;;;;;5023951;28;19936;-77
2022/09/25 06:42:35;;;;;;;;;;;14.30;92.90;;;;;;5024357;28;19937;-77
2022/09/25 06:45:02;;;;;;;;;;;14.30;92.90;;;;;;5027211;28;19929;-77
2022/09/25 06:47:28;;;;;;;;;;;14.30;92.90;;;;;;5027015;28;19940;-77
2022/09/25 06:49:55;;;;;;;;;;;14.30;92.90;;;;;;5023576;28;19941;-77
2022/09/25 06:52:23;;;;;;;;;;;14.30;92.90;;;;;;5025297;28;19929;-76
2022/09/25 06:54:49;;;;;;;;;;;14.30;92.90;;;;;;5025757;28;20355;-76
2022/09/25 06:57:16;;;;;;;;;;;14.30;93.10;;;;;;5016760;28;20480;-76
2022/09/25 06:59:43;;;;;;;;;;;14.20;93.50;;;;;;5022962;28;19975;-76
2022/09/25 07:04:50;;;;;;;;;;;14.30;95.30;;;;;;5018697;28;20295;-76
2022/09/25 07:07:18;;;;;;;;;;;14.30;96.20;;;;;;5023176;28;19929;-76
2022/09/25 07:09:47;;;;;;;;;;;14.40;97.10;;;;;;5023248;28;19998;-76
2022/09/25 07:12:13;;;;;;;;;;;14.40;97.80;;;;;;5022661;28;20036;-76
2022/09/25 07:14:40;;;;;;;;;;;14.50;98.50;;;;;;5016968;28;21199;-75
2022/09/25 07:17:07;;;;;;;;;;;14.50;99.10;;;;;;5022864;28;19983;-76
2022/09/25 07:19:33;;;;;;;;;;;14.50;99.60;;;;;;5021880;28;19940;-76
2022/09/25 07:22:00;;;;;;;;;;;14.60;99.90;;;;;;5019619;28;19929;-75
2022/09/25 07:24:26;;;;;;;;;;;14.60;99.90;;;;;;5024617;28;20141;-74
2022/09/25 07:26:54;;;;;;;;;;;14.60;99.90;;;;;;5020659;28;20356;-75
2022/09/25 07:29:21;;;;;;;;;;;14.60;99.90;;;;;;5019198;28;19959;-75
2022/09/25 07:31:47;;;;;;;;;;;14.60;99.90;;;;;;5022749;28;19936;-76
2022/09/25 07:34:15;;;;;;;;;;;14.70;99.90;;;;;;5023262;28;19940;-75
2022/09/25 07:36:42;;;;;;;;;;;14.70;99.90;;;;;;5018849;28;20031;-75
2022/09/25 07:39:08;;;;;;;;;;;14.70;99.90;;;;;;5022376;28;20340;-74
2022/09/25 07:41:36;;;;;;;;;;;14.70;99.90;;;;;;5025821;28;19936;-75
2022/09/25 07:44:04;;;;;;;;;;;14.70;99.90;;;;;;5030823;28;20679;-75
2022/09/25 07:46:31;;;;;;;;;;;14.70;99.90;;;;;;5028216;28;20011;-75
2022/09/25 07:48:57;;;;;;;;;;;14.70;99.90;;;;;;5024913;28;20020;-75
2022/09/25 07:51:25;;;;;;;;;;;14.80;99.90;;;;;;5024330;28;19941;-74
2022/09/25 07:53:51;;;;;;;;;;;14.70;99.90;;;;;;5029756;28;19929;-74
2022/09/25 07:56:19;;;;;;;;;;;14.80;99.90;;;;;;5022399;28;19936;-75
2022/09/25 07:58:46;;;;;;;;;;;14.80;99.90;;;;;;5031849;28;19933;-74
2022/09/25 08:01:13;;;;;;;;;;;14.80;99.90;;;;;;5025759;28;19936;-75
2022/09/25 08:03:40;;;;;;;;;;;14.80;99.90;;;;;;5031863;28;20707;-75
2022/09/25 08:06:10;;;;;;;;;;;14.80;99.90;;;;;;5027969;28;19937;-74
2022/09/25 08:08:37;;;;;;;;;;;14.80;99.90;;;;;;5027571;28;19940;-75
2022/09/25 08:11:05;;;;;;;;;;;14.80;99.90;;;;;;5025174;28;19929;-75
2022/09/25 08:13:32;;;;;;;;;;;14.80;99.90;;;;;;5024601;28;19941;-75
2022/09/25 08:16:01;;;;;;;;;;;14.80;99.90;;;;;;5034261;28;20427;-69
2022/09/25 08:18:29;;;;;;;;;;;14.80;99.90;;;;;;5025775;28;19976;-68
2022/09/25 08:21:00;;;;;;;;;;;14.80;99.90;;;;;;5026113;28;19929;-70
2022/09/25 08:23:26;;;;;;;;;;;14.90;99.90;;;;;;5027192;28;19933;-69
2022/09/25 08:25:53;;;;;;;;;;;14.90;99.90;;;;;;5023851;28;19929;-69
2022/09/25 08:28:19;;;;;;;;;;;14.90;99.90;;;;;;5028669;28;19959;-68
2022/09/25 08:30:46;;;;;;;;;;;14.90;99.90;;;;;;5026192;28;20269;-69
2022/09/25 08:33:13;;;;;;;;;;;14.90;99.90;;;;;;5031922;28;20031;-69
2022/09/25 08:35:41;;;;;;;;;;;14.90;99.90;;;;;;5026931;28;19929;-70
2022/09/25 08:38:08;;;;;;;;;;;14.90;99.90;;;;;;5026505;28;19929;-70
2022/09/25 08:40:36;;;;;;;;;;;14.90;99.90;;;;;;5021127;28;19933;-70
2022/09/25 08:43:04;;;;;;;;;;;14.90;99.90;;;;;;5026888;28;19929;-70
2022/09/25 08:51:08;;;;;;;;;;;14.90;99.90;;;;;;5025654;28;20403;-70
2022/09/25 08:53:35;;;;;;;;;;;15.00;99.90;;;;;;5026797;28;19937;-70
2022/09/25 08:56:16;;;;;;;;;;;14.90;99.90;;;;;;5021384;28;19933;-68
2022/09/25 08:58:45;;;;;;;;;;;14.90;99.90;;;;;;5019560;28;20741;-69
2022/09/25 09:01:13;;;;;;;;;;;15.00;99.90;;;;;;5017115;28;19933;-70
2022/09/25 09:03:43;;;;;;;;;;;15.00;99.90;;;;;;5022142;28;20004;-70
2022/09/25 09:06:14;;;;;;;;;;;15.00;99.90;;;;;;5021451;28;19929;-70
2022/09/25 09:08:41;;;;;;;;;;;14.90;99.90;;;;;;5019175;28;19928;-69
2022/09/25 09:11:11;;;;;;;;;;;15.00;99.90;;;;;;5022563;28;19933;-70
2022/09/25 09:13:42;;;;;;;;;;;15.00;99.90;;;;;;5017935;28;20564;-70
2022/09/25 09:16:11;;;;;;;;;;;15.00;99.90;;;;;;5022601;28;19929;-69
2022/09/25 09:18:38;;;;;;;;;;;15.00;99.90;;;;;;5023353;28;20052;-70
2022/09/25 09:21:10;;;;;;;;;;;15.00;99.90;;;;;;5021483;28;20682;-70
2022/09/25 09:23:42;;;;;;;;;;;15.00;99.90;;;;;;5017220;28;19929;-71
2022/09/25 09:26:13;;;;;;;;;;;15.00;99.90;;;;;;5021490;28;19982;-70
2022/09/25 09:28:54;;;;;;;;;;;15.10;99.90;;;;;;5019116;28;20258;-70
2022/09/25 09:31:22;;;;;;;;;;;15.00;99.90;;;;;;5025518;28;19928;-70
2022/09/25 09:33:55;;;;;;;;;;;15.00;99.90;;;;;;5018125;28;19933;-70
2022/09/25 09:36:26;;;;;;;;;;;15.10;99.90;;;;;;5030158;28;19929;-71
2022/09/25 09:38:59;;;;;;;;;;;15.10;99.90;;;;;;5018234;28;19999;-70
2022/09/25 09:41:33;;;;;;;;;;;15.10;99.80;;;;;;5015262;28;19968;-71
2022/09/25 09:44:06;;;;;;;;;;;15.10;99.80;;;;;;5016951;28;19933;-70
2022/09/25 09:46:37;;;;;;;;;;;15.10;99.70;;;;;;5016745;28;20770;-69
2022/09/25 09:49:08;;;;;;;;;;;15.10;99.70;;;;;;5023313;28;20798;-71
2022/09/25 09:51:38;;;;;;;;;;;15.10;99.60;;;;;;5016025;28;21029;-71
2022/09/25 09:54:09;;;;;;;;;;;15.10;99.60;;;;;;5020199;28;20761;-70
2022/09/25 09:56:37;;;;;;;;;;;15.10;99.60;;;;;;5020589;28;19941;-70
2022/09/25 09:59:04;;;;;;;;;;;15.10;99.50;;;;;;5018414;28;19925;-71
2022/09/25 10:01:34;;;;;;;;;;;15.10;99.50;;;;;;5022288;28;19945;-71
2022/09/25 10:04:03;;;;;;;;;;;15.10;99.50;;;;;;5022525;28;19929;-71
2022/09/25 10:06:30;;;;;;;;;;;15.10;99.40;;;;;;5019941;28;20408;-70
2022/09/25 10:08:57;;;;;;;;;;;15.10;99.30;;;;;;5019764;28;19933;-70
2022/09/25 10:11:25;;;;;;;;;;;15.10;99.30;;;;;;5018497;28;19933;-70
2022/09/25 10:13:53;;;;;;;;;;;15.10;99.30;;;;;;5018941;28;19975;-71
2022/09/25 10:16:21;;;;;;;;;;;15.10;99.30;;;;;;5023300;28;19933;-70
2022/09/25 10:18:49;;;;;;;;;;;15.20;99.30;;;;;;5020365;28;19933;-70
2022/09/25 10:21:17;;;;;;;;;;;15.20;99.20;;;;;;5020791;28;19929;-70
2022/09/25 10:23:48;;;;;;;;;;;15.10;99.20;;;;;;5023956;28;19924;-71
2022/09/25 10:26:26;;;;;;;;;;;15.10;99.20;;;;;;5019717;28;19929;-70
2022/09/25 10:28:53;;;;;;;;;;;15.20;99.20;;;;;;5027958;28;19975;-70
2022/09/25 10:31:20;;;;;;;;;;;15.20;99.10;;;;;;5018348;28;19979;-70
2022/09/25 10:33:58;;;;;;;;;;;15.20;99.10;;;;;;5018527;28;19961;-71
2022/09/25 10:36:30;;;;;;;;;;;15.20;99.00;;;;;;5020071;28;19975;-70
2022/09/25 10:38:57;;;;;;;;;;;15.20;99.00;;;;;;5020913;28;20485;-71
2022/09/25 10:41:25;;;;;;;;;;;15.20;99.00;;;;;;5018765;28;20015;-70
2022/09/25 10:43:53;;;;;;;;;;;15.20;98.90;;;;;;5017977;28;19930;-71
2022/09/25 10:52:05;;;;;;;;;;;15.30;98.80;;;;;;5013842;28;19932;-71
2022/09/25 10:54:32;;;;;;;;;;;15.20;98.80;;;;;;5021413;28;19933;-71
2022/09/25 10:57:00;;;;;;;;;;;15.30;98.80;;;;;;5019508;28;19929;-71
2022/09/25 10:59:27;;;;;;;;;;;15.30;98.80;;;;;;5012948;28;19936;-71
2022/09/25 11:01:54;;;;;;;;;;;15.30;98.70;;;;;;5020757;28;20331;-72
2022/09/25 11:04:23;;;;;;;;;;;15.30;98.70;;;;;;5022399;28;19959;-71
2022/09/25 11:06:51;;;;;;;;;;;15.30;98.60;;;;;;5020360;28;19929;-71
2022/09/25 11:09:19;;;;;;;;;;;15.40;98.70;;;;;;5018097;28;19935;-71
2022/09/25 11:11:48;;;;;;;;;;;15.40;98.60;;;;;;5019723;28;20019;-71
2022/09/25 11:14:21;;;;;;;;;;;15.40;98.50;;;;;;5014850;28;20032;-71
2022/09/25 11:16:50;;;;;;;;;;;15.40;98.50;;;;;;5025593;28;19968;-71
2022/09/25 11:19:19;;;;;;;;;;;15.40;98.40;;;;;;5022249;28;19937;-71
2022/09/25 11:21:58;;;;;;;;;;;15.40;98.30;;;;;;5017372;28;20507;-71
2022/09/25 11:24:29;;;;;;;;;;;15.50;98.30;;;;;;5019637;28;20028;-72
2022/09/25 11:26:59;;;;;;;;;;;15.50;98.20;;;;;;5017207;28;19939;-71
2022/09/25 11:29:33;;;;;;;;;;;15.50;98.20;;;;;;5020902;28;19941;-70
2022/09/25 11:32:03;;;;;;;;;;;15.60;98.20;;;;;;5021852;28;19968;-71
2022/09/25 11:34:36;;;;;;;;;;;15.50;98.10;;;;;;5020477;28;19933;-71
2022/09/25 11:37:05;;;;;;;;;;;15.60;98.10;;;;;;5017109;28;19929;-71
2022/09/25 11:42:25;;;;;;;;;;;15.60;98.10;;;;;;5021943;28;19940;-71
2022/09/25 11:44:56;;;;;;;;;;;15.60;98.00;;;;;;5017978;28;19933;-71
2022/09/25 11:47:27;;;;;;;;;;;15.60;98.00;;;;;;5020421;28;20309;-72
2022/09/25 11:49:53;;;;;;;;;;;15.60;98.00;;;;;;5019550;28;20463;-71
2022/09/25 11:52:32;;;;;;;;;;;15.60;97.90;;;;;;5015108;28;19932;-70
2022/09/25 11:55:13;;;;;;;;;;;15.60;97.90;;;;;;5020611;28;20416;-71
2022/09/25 11:57:43;;;;;;;;;;;15.70;97.90;;;;;;5015762;28;19925;-71
2022/09/25 12:00:16;;;;;;;;;;;15.70;97.80;;;;;;5017967;28;20411;-71
2022/09/25 12:02:55;;;;;;;;;;;15.70;97.70;;;;;;5016871;28;19926;-71
2022/09/25 12:05:36;;;;;;;;;;;15.70;97.70;;;;;;5017322;28;19933;-71
2022/09/25 12:08:23;;;;;;;;;;;15.70;97.70;;;;;;5020243;28;20030;-71
2022/09/25 12:10:54;;;;;;;;;;;15.70;97.60;;;;;;5019737;28;20054;-71
2022/09/25 12:13:26;;;;;;;;;;;15.80;97.60;;;;;;5019286;28;19979;-71
2022/09/25 12:16:01;;;;;;;;;;;15.80;97.50;;;;;;5017283;28;19987;-77
2022/09/25 12:18:36;;;;;;;;;;;15.80;97.50;;;;;;5014748;28;20043;-74
2022/09/25 12:21:06;;;;;;;;;;;15.80;97.80;;;;;;5013307;28;19932;-76
2022/09/25 12:23:34;;;;;;;;;;;15.80;97.40;;;;;;5012870;28;20490;-76
2022/09/25 12:26:06;;;;;;;;;;;15.90;97.40;;;;;;5011195;28;19929;-76
2022/09/25 12:28:38;;;;;;;;;;;16.00;97.40;;;;;;5016421;28;19987;-76
2022/09/25 12:31:10;;;;;;;;;;;15.90;97.30;;;;;;5014571;28;19936;-76
2022/09/25 12:33:41;;;;;;;;;;;15.90;97.10;;;;;;5015562;28;20209;-75
2022/09/25 12:36:10;;;;;;;;;;;16.00;97.10;;;;;;5013120;28;20443;-76
2022/09/25 12:38:40;;;;;;;;;;;16.00;97.00;;;;;;5015116;28;19933;-76
2022/09/25 12:41:09;;;;;;;;;;;16.00;96.80;;;;;;5015474;28;19939;-77
2022/09/25 12:43:40;;;;;;;;;;;16.00;96.80;;;;;;5021860;28;19925;-76
2022/09/25 12:46:09;;;;;;;;;;;16.00;96.90;;;;;;5017100;28;19970;-77
2022/09/25 12:48:37;;;;;;;;;;;16.10;96.80;;;;;;5019945;28;19932;-76
2022/09/25 12:51:06;;;;;;;;;;;16.00;96.80;;;;;;5018420;28;20015;-76
2022/09/25 12:53:36;;;;;;;;;;;16.10;96.80;;;;;;5019187;28;19945;-76
2022/09/25 12:56:08;;;;;;;;;;;16.10;96.70;;;;;;5022128;28;20483;-75
2022/09/25 12:58:43;;;;;;;;;;;16.10;97.00;;;;;;5021397;28;19929;-75
2022/09/25 13:01:14;;;;;;;;;;;16.10;96.70;;;;;;5019856;28;20558;-76
2022/09/25 13:03:45;;;;;;;;;;;16.10;96.70;;;;;;5019894;28;19944;-76
2022/09/25 13:06:15;;;;;;;;;;;16.10;96.80;;;;;;5013991;28;19925;-76
2022/09/25 13:08:44;;;;;;;;;;;16.10;96.90;;;;;;5019910;28;19940;-77
2022/09/25 13:11:14;;;;;;;;;;;16.10;97.00;;;;;;5022819;28;20328;-75
2022/09/25 13:13:44;;;;;;;;;;;16.10;97.00;;;;;;5016755;28;19940;-77
2022/09/25 13:16:14;;;;;;;;;;;16.10;97.10;;;;;;5024831;28;20581;-76
2022/09/25 13:18:47;;;;;;;;;;;16.10;97.10;;;;;;5019037;28;19929;-76
2022/09/25 13:21:24;;;;;;;;;;;16.10;97.10;;;;;;5021004;28;19936;-75
2022/09/25 13:23:51;;;;;;;;;;;16.00;97.10;;;;;;5022184;28;19944;-76
2022/09/25 13:26:21;;;;;;;;;;;16.00;97.10;;;;;;5019418;28;20771;-77
2022/09/25 13:28:49;;;;;;;;;;;16.10;97.20;;;;;;5019709;28;19929;-77
2022/09/25 13:31:23;;;;;;;;;;;16.00;97.20;;;;;;5017555;28;19936;-76
2022/09/25 13:33:50;;;;;;;;;;;16.00;97.20;;;;;;5014122;28;20395;-76
2022/09/25 13:36:38;;;;;;;;;;;16.00;97.20;;;;;;5019164;28;19930;-76
2022/09/25 13:41:54;;;;;;;;;;;16.00;97.30;;;;;;5014662;28;19932;-76
2022/09/25 13:44:39;;;;;;;;;;;16.00;97.30;;;;;;5019072;28;20026;-78
2022/09/25 13:47:25;;;;;;;;;;;16.00;97.30;;;;;;5020030;28;19933;-77
2022/09/25 13:49:54;;;;;;;;;;;16.00;97.30;;;;;;5019181;28;20024;-77
2022/09/25 13:52:30;;;;;;;;;;;16.00;97.30;;;;;;5018294;28;19933;-77
2022/09/25 13:55:07;;;;;;;;;;;16.00;97.20;;;;;;5022236;28;19946;-76
2022/09/25 13:57:49;;;;;;;;;;;16.00;97.20;;;;;;4998006;28;19937;-75
2022/09/25 14:00:16;;;;;;;;;;;16.00;97.30;;;;;;4995478;28;19964;-76
2022/09/25 14:02:45;;;;;;;;;;;16.00;97.30;;;;;;5024663;28;21295;-75
2022/09/25 14:05:16;;;;;;;;;;;16.10;97.20;;;;;;5017674;28;19936;-74
2022/09/25 14:07:43;;;;;;;;;;;16.00;97.20;;;;;;5009418;28;19940;-75
2022/09/25 14:10:11;;;;;;;;;;;16.10;97.30;;;;;;5018116;28;19926;-77
2022/09/25 14:12:42;;;;;;;;;;;16.20;97.30;;;;;;5015801;28;19968;-78
2022/09/25 14:15:17;;;;;;;;;;;16.20;97.30;;;;;;5016013;28;19929;-74
2022/09/25 14:17:44;;;;;;;;;;;16.20;97.30;;;;;;5019089;28;19933;-76
2022/09/25 14:20:24;;;;;;;;;;;16.30;97.20;;;;;;5020417;28;19932;-76
2022/09/25 14:22:52;;;;;;;;;;;16.40;97.00;;;;;;5025739;28;19987;-76
2022/09/25 14:25:27;;;;;;;;;;;16.40;96.80;;;;;;5024834;28;19933;-76
2022/09/25 14:27:53;;;;;;;;;;;16.40;96.60;;;;;;5023730;28;19928;-76
2022/09/25 14:30:20;;;;;;;;;;;16.50;96.50;;;;;;5019570;28;19975;-76
2022/09/25 14:32:53;;;;;;;;;;;16.50;96.40;;;;;;5018658;28;20032;-75
2022/09/25 14:35:27;;;;;;;;;;;16.50;96.30;;;;;;5018746;28;19929;-76
2022/09/25 14:38:08;;;;;;;;;;;16.50;96.30;;;;;;5023711;28;19928;-76
2022/09/25 14:40:35;;;;;;;;;;;16.50;96.20;;;;;;5014044;28;19979;-76
2022/09/25 14:43:07;;;;;;;;;;;16.50;96.20;;;;;;5025086;28;19929;-77
2022/09/25 14:45:49;;;;;;;;;;;16.50;96.20;;;;;;5025778;28;19928;-77
2022/09/25 14:48:17;;;;;;;;;;;16.50;96.10;;;;;;5020467;28;19933;-77
2022/09/25 14:50:46;;;;;;;;;;;16.50;96.10;;;;;;5026495;28;19963;-74
2022/09/25 14:53:14;;;;;;;;;;;16.50;96.00;;;;;;5019842;28;19998;-77
2022/09/25 14:55:45;;;;;;;;;;;16.50;96.00;;;;;;5021769;28;19933;-76